KHQM/HQM METAR and TAF weather

Enter ICAO airport designator
Station Type Date Time Source
KHQM METAR 2019/04/25 15:53 UTC NOAA

KHQM 251553Z AUTO 09005KT 9SM CLR 09/05 A3019 RMK AO2 SLP227 T00940050


Station Type Date Time Source
KHQM Decoded METAR 2019/04/25 15:53 UTC NOAA

HOQUIAM BOWERMAN AIRPORT, WA, United States (KHQM) 46-58N 123-56W 7M
Apr 25, 2019 - 11:53 AM EDT / 2019.04.25 1553 UTC
Wind: from the E (090 degrees) at 6 MPH (5 KT):0
Visibility: 9 mile(s):0
Sky conditions: clear
Temperature: 48.9 F (9.4 C)
Dew Point: 41.0 F (5.0 C)
Relative Humidity: 73%
Pressure (altimeter): 30.19 in. Hg (1022 hPa)
ob: KHQM 251553Z AUTO 09005KT 9SM CLR 09/05 A3019 RMK AO2 SLP227 T00940050
cycle: 16

Station Type Date Time Source
KHQM TAF 2019/04/25 12:33 UTC NOAA

TAF KHQM 251130Z 2512/2612 02004KT P6SM SCT200
FM251700 09009KT P6SM SCT120 OVC250
FM252000 25012KT P6SM SCT070 OVC120
FM260300 27009KT P6SM BKN050 OVC100
FM260900 27008KT P6SM BKN040 OVC070

Example: see airport list